createdAt,value
2023-03-23T15:57:56.846Z,11.15
2023-03-23T16:00:29.138Z,10.43
2023-03-23T16:03:01.017Z,16.02
2023-03-23T16:05:30.124Z,11.85
2023-03-23T16:07:59.240Z,12.35
2023-03-23T16:10:29.006Z,12.80
2023-03-23T16:12:59.657Z,12.20
2023-03-23T16:15:28.184Z,17.47
2023-03-23T16:17:56.683Z,11.68
2023-03-23T16:20:26.821Z,11.77
2023-03-23T16:22:55.451Z,10.13
2023-03-23T16:25:24.632Z,10.32
2023-03-23T16:27:54.596Z,9.95
2023-03-23T16:30:30.591Z,9.40
2023-03-23T16:32:59.008Z,12.57
2023-03-23T16:35:27.856Z,12.02
2023-03-23T16:38:08.557Z,14.40
2023-03-23T16:40:38.572Z,13.95
2023-03-23T16:43:09.623Z,11.17
2023-03-23T16:45:43.721Z,8.93
2023-03-23T16:48:14.912Z,12.80
2023-03-23T16:50:44.322Z,12.10
2023-03-23T16:53:14.133Z,12.20
2023-03-23T16:55:44.457Z,15.15
2023-03-23T16:58:16.866Z,16.20
2023-03-23T17:00:50.183Z,10.93
2023-03-23T17:03:19.327Z,13.18
2023-03-23T17:05:49.322Z,14.30
2023-03-23T17:08:20.901Z,26.08
2023-03-23T17:10:49.797Z,13.20
2023-03-23T17:13:18.924Z,15.15
2023-03-23T17:15:48.704Z,12.32
2023-03-23T17:18:17.514Z,22.17
2023-03-23T17:20:48.754Z,24.40
2023-03-23T17:23:17.871Z,29.60
2023-03-23T17:25:47.873Z,28.25
2023-03-23T17:28:18.120Z,24.60
2023-03-23T17:30:52.331Z,18.98
2023-03-23T17:33:22.857Z,16.48
2023-03-23T17:35:55.014Z,20.35
2023-03-23T17:38:24.627Z,15.35
2023-03-23T17:40:59.095Z,15.93
2023-03-23T17:43:30.642Z,16.15
2023-03-23T17:46:00.412Z,15.25
2023-03-23T17:48:30.190Z,18.25
2023-03-23T17:51:05.846Z,19.45
2023-03-23T17:53:36.662Z,24.13
2023-03-23T17:56:08.870Z,18.08
2023-03-23T17:58:37.757Z,19.58
2023-03-23T18:01:08.084Z,19.75
2023-03-23T18:03:38.720Z,13.77
2023-03-23T18:06:09.374Z,15.50
2023-03-23T18:08:38.758Z,20.93
2023-03-23T18:11:09.241Z,25.13
2023-03-23T18:13:39.441Z,19.85
2023-03-23T18:16:14.382Z,22.45
2023-03-23T18:18:44.885Z,24.25
2023-03-23T18:21:15.243Z,22.27
2023-03-23T18:23:53.186Z,23.85
2023-03-23T18:26:25.882Z,29.33
2023-03-23T18:28:54.217Z,19.67
2023-03-23T18:31:23.868Z,23.88
2023-03-23T18:33:55.011Z,21.90
2023-03-23T18:36:25.662Z,32.63
2023-03-23T18:38:56.696Z,26.67
2023-03-23T18:41:25.521Z,34.17
2023-03-23T18:43:57.883Z,47.75
2023-03-23T18:46:27.891Z,58.08
2023-03-23T18:48:56.207Z,61.05
2023-03-23T18:51:26.139Z,82.95
2023-03-23T18:53:54.891Z,70.05
2023-03-23T18:56:23.518Z,74.80
2023-03-23T18:58:53.232Z,61.67
2023-03-23T19:01:22.006Z,46.90
2023-03-23T19:03:51.941Z,38.40
2023-03-23T19:06:25.684Z,46.58
2023-03-23T19:08:56.772Z,45.97
2023-03-23T19:11:27.612Z,52.63
2023-03-23T19:14:02.818Z,48.83
2023-03-23T19:16:36.068Z,43.58
2023-03-23T19:19:09.025Z,41.35
2023-03-23T19:21:43.819Z,43.67
2023-03-23T19:24:14.892Z,41.40
2023-03-23T19:26:46.720Z,34.35
2023-03-23T19:29:26.599Z,32.90
2023-03-23T19:31:57.057Z,31.90
2023-03-23T19:34:30.106Z,33.13
2023-03-23T19:37:05.904Z,33.42
2023-03-23T19:39:36.777Z,32.13
2023-03-23T19:42:05.869Z,30.40
2023-03-23T19:44:34.929Z,36.30
2023-03-23T19:47:04.040Z,32.47
2023-03-23T19:49:33.794Z,33.60
2023-03-23T19:52:07.772Z,25.52
2023-03-23T19:54:41.631Z,27.98
2023-03-23T19:57:12.608Z,29.20
2023-03-23T19:59:41.012Z,26.57
2023-03-23T20:02:12.617Z,30.92
2023-03-23T20:04:43.417Z,30.48
2023-03-23T20:07:12.608Z,33.03
2023-03-23T20:09:46.352Z,32.22
2023-03-23T20:12:16.136Z,31.52
2023-03-23T20:14:45.362Z,30.67
2023-03-23T20:17:14.736Z,34.75
2023-03-23T20:19:44.998Z,36.28
2023-03-23T20:22:15.869Z,33.60
2023-03-23T20:24:47.021Z,29.05
2023-03-23T20:27:18.592Z,33.78
2023-03-23T20:29:47.124Z,33.28
2023-03-23T20:32:15.884Z,32.20
2023-03-23T20:34:49.406Z,28.77
2023-03-23T20:37:20.445Z,30.55
2023-03-23T20:39:49.516Z,28.80
2023-03-23T20:42:19.851Z,30.17
2023-03-23T20:44:48.601Z,30.60
2023-03-23T20:47:16.974Z,36.35
2023-03-23T20:49:52.807Z,38.28
2023-03-23T20:52:22.992Z,35.70
2023-03-23T20:54:52.460Z,30.10
2023-03-23T20:57:22.721Z,36.42
2023-03-23T20:59:51.697Z,33.45
2023-03-23T21:02:21.608Z,34.95
2023-03-23T21:04:52.722Z,34.28
2023-03-23T21:07:27.585Z,32.97
2023-03-23T21:09:57.058Z,33.72
2023-03-23T21:12:28.006Z,34.75
2023-03-23T21:14:56.518Z,38.25
2023-03-23T21:17:24.733Z,35.70
2023-03-23T21:19:55.672Z,32.85
2023-03-23T21:22:24.214Z,35.35
2023-03-23T21:24:53.990Z,33.22
2023-03-23T21:27:22.486Z,33.90
2023-03-23T21:29:51.394Z,31.83
2023-03-23T21:32:19.747Z,34.13
2023-03-23T21:34:48.381Z,34.63
2023-03-23T21:37:19.249Z,41.53
2023-03-23T21:39:47.825Z,34.70
2023-03-23T21:42:16.686Z,36.70
2023-03-23T21:44:45.800Z,36.92
2023-03-23T21:47:14.292Z,31.63
2023-03-23T21:49:46.237Z,31.15
2023-03-23T21:52:17.868Z,32.50
2023-03-23T21:54:48.884Z,35.08
2023-03-23T21:57:19.427Z,32.00
2023-03-23T21:59:47.787Z,34.60
2023-03-23T22:02:16.942Z,30.33
2023-03-23T22:04:45.909Z,39.92
2023-03-23T22:07:16.037Z,34.60
2023-03-23T22:09:46.117Z,30.15
2023-03-23T22:12:18.801Z,34.15
2023-03-23T22:14:49.244Z,32.40
2023-03-23T22:17:19.090Z,38.38
2023-03-23T22:19:50.780Z,47.95
2023-03-23T22:22:19.643Z,36.60
2023-03-23T22:24:49.790Z,36.92
2023-03-23T22:27:23.010Z,35.50
2023-03-23T22:29:53.343Z,37.85
2023-03-23T22:32:21.845Z,36.00
2023-03-23T22:34:53.991Z,40.95
2023-03-23T22:37:22.440Z,31.83
2023-03-23T22:39:54.031Z,34.92
2023-03-23T22:42:24.542Z,32.05
2023-03-23T22:44:53.011Z,28.60
2023-03-23T22:47:21.540Z,31.48
2023-03-23T22:49:50.621Z,34.33
2023-03-23T22:52:20.422Z,36.17
2023-03-23T22:54:54.839Z,33.70
2023-03-23T22:57:28.990Z,32.53
2023-03-23T22:59:57.465Z,34.38
2023-03-23T23:02:26.562Z,32.40
2023-03-23T23:04:55.666Z,35.63
2023-03-23T23:07:25.856Z,40.20
2023-03-23T23:09:56.038Z,33.47
2023-03-23T23:12:25.989Z,37.00
2023-03-23T23:14:54.939Z,39.58
2023-03-23T23:17:24.099Z,38.47
2023-03-23T23:19:53.648Z,34.33
2023-03-23T23:22:22.182Z,31.67
2023-03-23T23:24:52.255Z,34.47
2023-03-23T23:27:24.902Z,36.25
2023-03-23T23:29:54.898Z,34.92
2023-03-23T23:32:23.331Z,33.20
2023-03-23T23:34:54.408Z,36.55
2023-03-23T23:37:25.094Z,38.53
2023-03-23T23:39:54.166Z,36.83
2023-03-23T23:42:23.332Z,34.40
2023-03-23T23:44:51.960Z,35.08
2023-03-23T23:47:21.875Z,35.72
2023-03-23T23:49:50.392Z,40.50
2023-03-23T23:52:21.260Z,34.00
2023-03-23T23:54:55.129Z,39.47
2023-03-23T23:57:28.337Z,33.17
